Time;durP1;ratioP1;P1;durP2;ratioP2;P2;SDS_P1;SDS_P2;PMS_P1;PMS_P2;Temp;Humidity;BMP_temperature;BMP_pressure;BME280_temperature;BME280_humidity;BME280_pressure;Samples;Min_cycle;Max_cycle;Signal;HPM_P1;HPM_P2
2022/03/03 00:02:00;;;;;;;17.67;14.00;;;;;;;1.83;76.49;151838.41;5067139;28;20465;-80
2022/03/03 00:04:36;;;;;;;23.57;15.50;;;;;;;1.73;77.59;151811.41;5069250;28;20440;-79
2022/03/03 00:07:12;;;;;;;19.47;14.40;;;;;;;1.71;78.00;151806.28;5048923;28;20448;-79
2022/03/03 00:09:48;;;;;;;19.73;14.77;;;;;;;1.64;77.86;151788.31;5083429;28;21244;-79
2022/03/03 00:12:24;;;;;;;21.80;15.57;;;;;;;1.60;76.65;151778.00;5068326;28;20433;-79
2022/03/03 00:14:59;;;;;;;21.67;16.40;;;;;;;1.62;77.57;151784.44;5066484;28;20462;-79
2022/03/03 00:17:35;;;;;;;22.47;15.60;;;;;;;1.61;76.46;151781.91;5049121;28;20963;-79
2022/03/03 00:20:12;;;;;;;19.17;15.60;;;;;;;1.56;77.17;151769.00;5067195;28;20441;-79
2022/03/03 00:22:47;;;;;;;21.40;16.10;;;;;;;1.47;77.49;151744.59;5066430;28;20504;-78
2022/03/03 00:25:24;;;;;;;24.00;16.20;;;;;;;1.46;76.79;151742.00;5064486;28;20453;-79
2022/03/03 00:28:04;;;;;;;23.53;15.50;;;;;;;1.44;77.70;151736.88;5067152;28;20795;-79
2022/03/03 00:30:39;;;;;;;18.87;14.80;;;;;;;1.40;77.88;151727.94;5067584;28;20469;-79
2022/03/03 00:33:15;;;;;;;23.53;16.90;;;;;;;1.47;77.65;151744.59;5060320;28;20968;-79
2022/03/03 00:35:50;;;;;;;21.70;16.20;;;;;;;1.43;76.49;151734.34;5066848;28;20955;-79
2022/03/03 00:38:26;;;;;;;22.63;15.93;;;;;;;1.38;77.61;151721.50;5068648;28;20458;-79
2022/03/03 00:41:02;;;;;;;17.20;13.83;;;;;;;1.36;77.11;151716.31;5060391;28;20931;-79
2022/03/03 00:43:38;;;;;;;20.13;15.40;;;;;;;1.30;78.07;151700.94;5059075;28;20785;-79
2022/03/03 00:46:13;;;;;;;25.20;17.03;;;;;;;1.21;78.13;151680.41;5065505;28;20442;-79
2022/03/03 00:48:49;;;;;;;20.50;15.53;;;;;;;1.16;78.89;151667.56;5067760;28;20476;-79
2022/03/03 00:51:25;;;;;;;21.33;16.63;;;;;;;1.10;78.59;151652.13;5065883;28;20435;-79
2022/03/03 00:54:00;;;;;;;22.70;16.57;;;;;;;1.08;78.29;151645.69;5084419;28;20490;-79
2022/03/03 00:56:37;;;;;;;23.63;16.70;;;;;;;1.10;78.89;151650.84;5071216;28;20454;-79
2022/03/03 00:59:12;;;;;;;24.40;15.63;;;;;;;1.05;79.70;151639.28;5087584;28;20450;-79
2022/03/03 01:01:47;;;;;;;22.57;17.03;;;;;;;1.04;79.18;151635.41;5065290;28;20471;-79
2022/03/03 01:04:23;;;;;;;20.27;15.87;;;;;;;0.97;80.69;151618.72;5043876;28;20454;-79
2022/03/03 01:06:59;;;;;;;22.10;15.47;;;;;;;0.97;80.95;151617.44;5070144;28;20453;-79
2022/03/03 01:09:34;;;;;;;22.27;16.70;;;;;;;0.94;81.21;151611.03;5082816;28;20446;-79
2022/03/03 01:12:11;;;;;;;21.23;15.60;;;;;;;0.91;80.75;151603.31;5068339;28;21017;-79
2022/03/03 01:14:47;;;;;;;21.00;16.10;;;;;;;0.87;80.24;151593.06;5067222;28;20467;-79
2022/03/03 01:17:23;;;;;;;19.47;16.60;;;;;;;0.85;80.62;151587.88;5086368;28;20446;-79
2022/03/03 01:19:58;;;;;;;20.27;15.77;;;;;;;0.85;80.88;151586.63;5069485;28;20450;-79
2022/03/03 01:22:34;;;;;;;18.07;15.30;;;;;;;0.79;79.57;151571.22;5066892;28;20469;-79
2022/03/03 01:25:10;;;;;;;20.67;16.27;;;;;;;0.77;79.83;151567.34;5070635;28;20446;-79
2022/03/03 01:27:47;;;;;;;21.83;17.10;;;;;;;0.74;79.54;151559.66;5050301;28;20466;-79
2022/03/03 01:30:23;;;;;;;25.47;16.23;;;;;;;0.70;78.97;151548.09;5055098;28;20543;-79
2022/03/03 01:32:59;;;;;;;21.33;17.10;;;;;;;0.69;78.69;151545.53;5065402;28;20451;-79
2022/03/03 01:35:34;;;;;;;25.53;16.90;;;;;;;0.67;78.88;151541.66;5066869;28;20832;-79
2022/03/03 01:38:10;;;;;;;22.80;17.87;;;;;;;0.63;78.53;151531.41;5061994;28;20461;-79
2022/03/03 01:40:45;;;;;;;26.53;17.30;;;;;;;0.60;79.03;151523.72;5072222;28;20872;-79
2022/03/03 01:43:23;;;;;;;25.00;18.20;;;;;;;0.57;78.89;151516.00;5087503;28;20547;-79
2022/03/03 01:45:59;;;;;;;21.70;16.53;;;;;;;0.54;79.53;151508.28;5068616;28;20455;-79
2022/03/03 01:48:34;;;;;;;21.70;16.70;;;;;;;0.61;78.96;151526.25;5048364;28;20965;-79
2022/03/03 01:51:09;;;;;;;23.67;18.10;;;;;;;0.66;78.55;151539.13;5054885;28;20545;-79
2022/03/03 01:53:45;;;;;;;26.63;16.93;;;;;;;0.62;77.94;151528.81;5068123;28;20465;-79
2022/03/03 01:56:21;;;;;;;22.30;17.17;;;;;;;0.63;78.54;151530.13;5068904;28;21028;-79
2022/03/03 01:58:59;;;;;;;21.77;16.47;;;;;;;0.59;77.78;151522.41;5052342;28;20485;-79
2022/03/03 02:01:35;;;;;;;23.50;17.10;;;;;;;0.55;78.63;151512.16;5064911;28;20458;-79
2022/03/03 02:04:11;;;;;;;21.93;16.03;;;;;;;0.54;78.30;151509.59;5053489;28;20482;-79
2022/03/03 02:06:46;;;;;;;22.07;16.80;;;;;;;0.53;77.09;151505.75;5068203;28;20565;-79
2022/03/03 02:09:22;;;;;;;27.87;18.07;;;;;;;0.54;77.64;151508.28;5069419;28;20776;-79
2022/03/03 02:11:58;;;;;;;21.17;16.03;;;;;;;0.63;78.30;151531.41;5068685;28;20448;-79
2022/03/03 02:14:42;;;;;;;22.93;16.13;;;;;;;0.61;78.36;151527.53;5070028;28;20453;-79
2022/03/03 02:17:18;;;;;;;21.70;17.27;;;;;;;0.50;78.62;151498.03;5067815;28;20445;-79
2022/03/03 02:19:54;;;;;;;20.87;16.60;;;;;;;0.36;78.01;151462.09;5062036;28;20439;-79
2022/03/03 02:22:35;;;;;;;20.67;16.30;;;;;;;0.30;78.34;151446.66;5065807;28;20478;-79
2022/03/03 02:25:11;;;;;;;21.87;15.77;;;;;;;0.25;79.24;151433.84;5068230;28;20463;-79
2022/03/03 02:27:47;;;;;;;22.40;16.90;;;;;;;0.27;78.50;151440.25;5065295;28;20460;-79
2022/03/03 02:30:22;;;;;;;19.57;15.63;;;;;;;0.27;79.05;151440.25;5069426;28;20445;-79
2022/03/03 02:32:57;;;;;;;21.20;15.33;;;;;;;0.27;78.83;151440.25;5069536;28;20422;-79
2022/03/03 02:35:33;;;;;;;21.20;15.73;;;;;;;0.30;79.81;151446.66;5064833;28;20445;-79
2022/03/03 02:38:10;;;;;;;21.67;16.10;;;;;;;0.29;79.08;151444.13;5063672;28;20553;-79
2022/03/03 02:40:46;;;;;;;23.07;16.43;;;;;;;0.27;79.09;151438.97;5045406;28;20541;-79
2022/03/03 02:43:21;;;;;;;23.03;17.07;;;;;;;0.19;78.17;151419.72;5071111;28;20876;-79
2022/03/03 02:45:57;;;;;;;22.53;16.83;;;;;;;0.15;79.28;151409.47;5047442;28;20453;-79
2022/03/03 02:48:32;;;;;;;28.13;17.97;;;;;;;0.13;78.67;151404.34;5067765;28;20444;-79
2022/03/03 02:51:09;;;;;;;21.90;15.80;;;;;;;0.16;80.98;151412.00;5069548;28;20941;-79
2022/03/03 02:53:46;;;;;;;22.27;16.77;;;;;;;0.17;80.92;151414.59;5057545;28;20443;-79
2022/03/03 02:56:22;;;;;;;23.07;16.20;;;;;;;0.14;80.86;151405.59;5069571;28;20492;-79
2022/03/03 02:58:57;;;;;;;20.90;15.40;;;;;;;0.09;81.18;151394.06;5066478;28;20470;-79
2022/03/03 03:01:33;;;;;;;24.20;17.37;;;;;;;0.12;80.41;151401.75;5063304;28;20820;-79
2022/03/03 03:04:09;;;;;;;24.47;17.27;;;;;;;0.10;79.55;151395.34;5060945;28;20454;-79
2022/03/03 03:06:44;;;;;;;20.80;16.10;;;;;;;0.04;80.77;151379.94;5067937;28;20435;-79
2022/03/03 03:09:21;;;;;;;21.50;16.03;;;;;;;-0.08;80.88;151350.44;5052835;28;20492;-79
2022/03/03 03:11:57;;;;;;;20.37;16.70;;;;;;;-0.11;80.42;151344.00;5068361;28;20441;-79
2022/03/03 03:14:33;;;;;;;23.20;16.90;;;;;;;-0.18;80.23;151324.75;5050837;28;20448;-79
2022/03/03 03:17:09;;;;;;;23.97;15.50;;;;;;;-0.23;80.30;151311.94;5050496;28;20437;-79
2022/03/03 03:19:45;;;;;;;22.70;16.70;;;;;;;-0.25;80.28;151306.81;5066680;28;20452;-79
2022/03/03 03:22:20;;;;;;;22.60;17.00;;;;;;;-0.30;82.12;151293.97;5053428;28;20548;-79
2022/03/03 03:24:57;;;;;;;20.93;15.13;;;;;;;-0.33;81.04;151287.56;5049671;28;20922;-79
2022/03/03 03:27:33;;;;;;;23.70;15.47;;;;;;;-0.28;80.99;151300.41;5069649;28;20812;-79
2022/03/03 03:30:11;;;;;;;20.70;17.10;;;;;;;-0.20;81.40;151320.91;5049224;28;20961;-81
2022/03/03 03:32:47;;;;;;;24.13;17.40;;;;;;;-0.08;81.21;151350.44;5073244;28;20498;-81
2022/03/03 03:35:23;;;;;;;21.93;17.10;;;;;;;-0.10;81.60;151346.56;5069075;28;20444;-81
2022/03/03 03:37:58;;;;;;;23.07;14.77;;;;;;;-0.26;81.90;151305.50;5065318;28;20486;-80
2022/03/03 03:40:35;;;;;;;24.27;15.90;;;;;;;-0.31;82.10;151291.41;5055368;28;20480;-80
2022/03/03 03:43:10;;;;;;;28.47;18.17;;;;;;;-0.28;82.17;151300.41;5074753;28;20563;-80
2022/03/03 03:45:46;;;;;;;23.87;17.30;;;;;;;-0.28;82.01;151300.41;5066022;28;20430;-81
2022/03/03 03:48:23;;;;;;;24.90;18.40;;;;;;;-0.27;81.19;151302.97;5054966;28;20457;-81
2022/03/03 03:50:59;;;;;;;24.43;17.23;;;;;;;-0.26;81.57;151305.50;5044780;28;20458;-80
2022/03/03 03:53:34;;;;;;;21.83;16.70;;;;;;;-0.26;81.89;151304.22;5048412;28;20443;-81
2022/03/03 03:56:12;;;;;;;23.83;17.50;;;;;;;-0.26;81.59;151304.22;5047838;28;20455;-81
2022/03/03 03:58:47;;;;;;;27.00;18.73;;;;;;;-0.25;81.11;151308.09;5045342;28;20806;-80
2022/03/03 04:01:23;;;;;;;23.33;16.87;;;;;;;-0.19;81.17;151323.50;5043771;28;20549;-80
2022/03/03 04:03:58;;;;;;;21.23;16.10;;;;;;;0.02;80.05;151374.81;5045293;28;20482;-81
2022/03/03 04:06:34;;;;;;;23.87;18.10;;;;;;;-0.04;80.56;151361.97;5029463;28;20557;-81
2022/03/03 04:09:09;;;;;;;27.47;18.90;;;;;;;-0.04;80.44;151361.97;5045892;28;20466;-80
2022/03/03 04:11:46;;;;;;;25.70;18.70;;;;;;;-0.09;80.74;151349.16;5035082;28;20453;-80
2022/03/03 04:14:22;;;;;;;26.90;18.30;;;;;;;-0.17;80.60;151327.34;5053737;28;20904;-81
2022/03/03 04:16:57;;;;;;;25.57;19.00;;;;;;;-0.23;81.31;151313.22;5045801;28;20447;-81
2022/03/03 04:19:33;;;;;;;30.80;20.67;;;;;;;-0.27;81.59;151301.69;5041571;28;20461;-78
2022/03/03 04:22:09;;;;;;;27.77;19.70;;;;;;;-0.31;81.86;151292.69;5047925;28;20948;-80
2022/03/03 04:24:44;;;;;;;32.37;21.60;;;;;;;-0.22;81.49;151315.81;5048591;28;20464;-79
2022/03/03 04:27:21;;;;;;;29.43;19.40;;;;;;;-0.20;81.63;151319.63;5061787;28;20567;-79
2022/03/03 04:29:57;;;;;;;24.87;19.20;;;;;;;-0.13;80.48;151338.88;5038869;28;20774;-79
2022/03/03 04:32:32;;;;;;;24.70;18.40;;;;;;;-0.21;80.51;151317.03;5026858;28;20455;-79
2022/03/03 04:35:09;;;;;;;24.13;17.80;;;;;;;-0.21;80.94;151318.34;5037141;28;20470;-79
2022/03/03 04:37:45;;;;;;;24.37;18.17;;;;;;;-0.23;81.96;151313.22;5043256;28;20490;-79
2022/03/03 04:40:21;;;;;;;23.20;17.07;;;;;;;-0.30;83.05;151295.28;5027285;28;20454;-78
2022/03/03 04:42:57;;;;;;;25.23;18.53;;;;;;;-0.40;82.40;151269.63;5031484;28;20524;-79
2022/03/03 04:45:33;;;;;;;25.30;18.00;;;;;;;-0.47;83.44;151251.63;5048120;28;20529;-79
2022/03/03 04:48:08;;;;;;;22.70;17.20;;;;;;;-0.48;84.31;151249.09;5047002;28;20450;-79
2022/03/03 04:50:44;;;;;;;20.53;15.70;;;;;;;-0.46;84.29;151252.94;5045249;28;20481;-79
2022/03/03 04:53:20;;;;;;;25.87;17.33;;;;;;;-0.51;84.10;151240.09;5047640;28;20468;-79
2022/03/03 04:55:56;;;;;;;22.50;17.43;;;;;;;-0.55;84.32;151229.81;5028199;28;20458;-79
2022/03/03 04:58:33;;;;;;;21.53;16.30;;;;;;;-0.61;85.53;151215.75;5030099;28;20881;-79
2022/03/03 05:01:08;;;;;;;23.47;15.90;;;;;;;-0.65;85.58;151205.47;5045569;28;20544;-79
2022/03/03 05:03:44;;;;;;;25.43;17.37;;;;;;;-0.67;85.48;151200.34;5048596;28;20465;-79
2022/03/03 05:06:19;;;;;;;24.80;16.60;;;;;;;-0.69;85.73;151195.25;5048442;28;20449;-79
2022/03/03 05:08:55;;;;;;;21.73;17.23;;;;;;;-0.72;86.35;151187.53;5040439;28;20437;-79
2022/03/03 05:11:31;;;;;;;25.10;16.97;;;;;;;-0.74;85.97;151182.38;5047257;28;20449;-79
2022/03/03 05:14:08;;;;;;;31.30;17.57;;;;;;;-0.81;86.68;151164.44;5045892;28;20458;-79
2022/03/03 05:16:44;;;;;;;24.70;17.50;;;;;;;-0.87;87.61;151150.31;5045940;28;20453;-79
2022/03/03 05:19:19;;;;;;;21.97;17.10;;;;;;;-0.91;87.15;151138.78;5042679;28;20556;-79
2022/03/03 05:21:55;;;;;;;24.10;17.40;;;;;;;-0.95;87.58;151129.81;5046402;28;20450;-79
2022/03/03 05:24:30;;;;;;;23.73;17.13;;;;;;;-0.89;87.63;151143.91;5046413;28;20474;-79
2022/03/03 05:27:06;;;;;;;25.73;16.83;;;;;;;-0.92;88.17;151136.22;5047684;28;20453;-79
2022/03/03 05:29:43;;;;;;;26.60;18.07;;;;;;;-0.94;87.56;151131.09;5023666;28;20451;-79
2022/03/03 05:32:19;;;;;;;20.73;15.90;;;;;;;-0.95;88.77;151129.81;5027117;28;20475;-79
2022/03/03 05:34:54;;;;;;;24.50;17.00;;;;;;;-0.96;88.52;151127.28;5044238;28;20982;-79
2022/03/03 05:37:30;;;;;;;21.70;15.40;;;;;;;-0.96;88.62;151125.97;5047510;28;20439;-79
2022/03/03 05:40:07;;;;;;;23.00;16.00;;;;;;;-1.01;88.17;151114.47;5044078;28;20438;-79
2022/03/03 05:42:43;;;;;;;23.30;16.23;;;;;;;-0.99;88.11;151119.56;5029523;28;20468;-79
2022/03/03 05:45:20;;;;;;;24.50;16.67;;;;;;;-0.93;88.22;151133.69;5043170;28;20455;-79
2022/03/03 05:47:55;;;;;;;23.80;17.07;;;;;;;-0.95;87.92;151128.50;5046006;28;20530;-81
2022/03/03 05:50:31;;;;;;;21.97;16.63;;;;;;;-0.94;87.73;151131.09;5062425;28;20472;-79
2022/03/03 05:53:07;;;;;;;23.30;18.47;;;;;;;-0.93;87.52;151134.97;5081009;28;20468;-80
2022/03/03 05:55:44;;;;;;;20.47;16.50;;;;;;;-0.88;87.60;151146.50;5063914;28;20447;-80
2022/03/03 05:58:21;;;;;;;23.90;15.60;;;;;;;-0.88;86.40;151146.50;5061997;28;20446;-80
2022/03/03 06:00:59;;;;;;;25.80;16.27;;;;;;;-0.90;86.37;151141.38;5064159;28;20485;-80
2022/03/03 06:03:35;;;;;;;21.17;16.43;;;;;;;-0.91;85.70;151138.78;5065624;28;20481;-80
2022/03/03 06:06:16;;;;;;;22.87;15.53;;;;;;;-0.93;87.22;151134.97;5062876;28;20856;-81
2022/03/03 06:08:58;;;;;;;22.87;17.43;;;;;;;-0.92;86.34;151136.22;5062947;28;20460;-80
2022/03/03 06:11:35;;;;;;;22.37;16.60;;;;;;;-0.86;86.90;151151.63;5058545;28;20439;-80
2022/03/03 06:14:11;;;;;;;24.10;16.60;;;;;;;-0.83;85.59;151159.31;5077297;28;20444;-80
2022/03/03 06:16:49;;;;;;;23.63;16.20;;;;;;;-0.80;86.16;151167.00;5045887;28;20453;-80
2022/03/03 06:19:25;;;;;;;23.50;16.33;;;;;;;-0.74;85.76;151182.38;5044228;28;20548;-80
2022/03/03 06:22:00;;;;;;;24.90;16.60;;;;;;;-0.66;85.62;151202.88;5063257;28;20803;-79
2022/03/03 06:24:36;;;;;;;25.73;17.00;;;;;;;-0.61;85.55;151217.00;5055048;28;20476;-79
2022/03/03 06:27:12;;;;;;;22.37;16.47;;;;;;;-0.48;86.15;151247.81;5066157;28;20466;-79
2022/03/03 06:29:48;;;;;;;23.03;16.60;;;;;;;-0.44;84.75;151259.34;5061001;28;20457;-79
2022/03/03 06:32:25;;;;;;;26.00;17.37;;;;;;;-0.34;84.84;151284.97;5065397;28;20950;-79
2022/03/03 06:35:03;;;;;;;23.77;17.10;;;;;;;-0.20;84.50;151320.91;5062697;28;20452;-79
2022/03/03 06:37:38;;;;;;;24.40;17.90;;;;;;;-0.07;84.78;151354.28;5059564;28;20444;-79
2022/03/03 06:40:14;;;;;;;23.30;16.83;;;;;;;0.08;83.19;151390.22;5061665;28;20445;-79
2022/03/03 06:42:50;;;;;;;25.10;17.90;;;;;;;0.27;83.52;151438.97;5062292;28;20464;-79
2022/03/03 06:45:26;;;;;;;27.90;18.20;;;;;;;0.41;83.00;151476.22;5064337;28;20438;-79
2022/03/03 06:48:05;;;;;;;24.50;18.20;;;;;;;0.61;81.88;151527.53;5063947;28;20462;-79
2022/03/03 06:50:43;;;;;;;23.97;16.87;;;;;;;0.79;81.47;151572.50;5060762;28;20505;-79
2022/03/03 06:53:21;;;;;;;25.63;17.30;;;;;;;1.02;80.49;151630.28;5061053;28;20839;-79
2022/03/03 06:56:05;;;;;;;25.57;17.00;;;;;;;1.24;80.17;151688.06;5063107;28;20451;-80
2022/03/03 06:58:41;;;;;;;18.43;15.77;;;;;;;1.45;78.76;151739.47;5064611;28;20796;-79
2022/03/03 07:01:17;;;;;;;23.70;18.40;;;;;;;1.61;78.64;151780.59;5066641;28;20440;-79
2022/03/03 07:03:54;;;;;;;25.23;18.53;;;;;;;1.71;78.37;151807.59;5064326;28;20827;-80
2022/03/03 07:06:29;;;;;;;23.90;18.30;;;;;;;1.80;77.40;151829.44;5062404;28;20878;-80
2022/03/03 07:09:05;;;;;;;23.40;17.43;;;;;;;1.89;77.29;151852.56;5059550;28;20461;-80
2022/03/03 07:11:42;;;;;;;21.80;18.27;;;;;;;2.01;77.81;151883.44;5064041;28;20463;-80
2022/03/03 07:14:18;;;;;;;24.87;18.47;;;;;;;2.04;77.16;151891.09;5066202;28;20441;-80
2022/03/03 07:17:00;;;;;;;28.97;18.73;;;;;;;2.22;76.59;151936.13;5063754;28;21664;-79
2022/03/03 07:19:50;;;;;;;26.53;18.73;;;;;;;2.40;76.34;151982.41;5066826;28;20796;-80
2022/03/03 07:22:32;;;;;;;28.57;20.20;;;;;;;2.55;74.73;152019.69;5062559;28;20908;-79
2022/03/03 07:25:10;;;;;;;31.30;19.37;;;;;;;2.61;74.79;152035.13;5065098;28;20982;-80
2022/03/03 07:27:47;;;;;;;25.43;19.00;;;;;;;2.69;73.81;152055.72;5075808;28;20907;-79
2022/03/03 07:30:22;;;;;;;31.37;19.93;;;;;;;3.05;72.81;152149.63;5063825;28;20447;-79
2022/03/03 07:33:06;;;;;;;24.50;19.03;;;;;;;3.18;71.27;152181.78;5066238;28;20461;-80
2022/03/03 07:35:44;;;;;;;28.50;18.10;;;;;;;3.33;71.89;152219.13;5065580;28;20441;-80
2022/03/03 07:38:25;;;;;;;23.77;18.47;;;;;;;3.37;71.16;152229.41;5062305;28;20462;-79
2022/03/03 07:41:02;;;;;;;27.13;18.80;;;;;;;3.58;68.69;152283.47;5069082;28;20454;-80
2022/03/03 07:43:38;;;;;;;26.77;19.30;;;;;;;3.35;69.40;152225.56;5066943;28;20564;-80
2022/03/03 07:46:13;;;;;;;26.80;19.03;;;;;;;3.41;70.09;152239.72;5048166;28;20485;-80
2022/03/03 07:48:51;;;;;;;25.50;17.90;;;;;;;3.63;69.62;152296.31;5065585;28;20481;-80
2022/03/03 07:51:28;;;;;;;28.00;19.60;;;;;;;3.83;67.96;152346.56;5081969;28;20554;-80
2022/03/03 07:54:03;;;;;;;30.77;20.40;;;;;;;3.84;66.52;152349.16;5055808;28;20457;-80
2022/03/03 07:56:42;;;;;;;29.20;21.63;;;;;;;4.06;67.55;152407.06;5070288;28;20799;-80
2022/03/03 07:59:19;;;;;;;28.77;19.53;;;;;;;4.41;68.21;152495.94;5066050;28;20515;-80
2022/03/03 08:01:56;;;;;;;28.77;21.00;;;;;;;4.63;68.08;152552.59;5070220;28;20962;-81
2022/03/03 08:04:34;;;;;;;24.00;19.50;;;;;;;4.84;66.62;152605.47;5083027;28;20517;-81
2022/03/03 08:07:13;;;;;;;25.17;19.87;;;;;;;5.08;65.50;152666.03;5070331;28;20441;-81
2022/03/03 08:09:49;;;;;;;26.43;19.20;;;;;;;5.17;64.09;152689.22;5066073;28;20887;-81
2022/03/03 08:12:25;;;;;;;24.50;20.10;;;;;;;5.32;64.56;152729.16;5053595;28;20543;-81
2022/03/03 08:15:01;;;;;;;25.70;18.70;;;;;;;5.49;63.35;152771.72;5047958;28;20450;-81
2022/03/03 08:17:37;;;;;;;23.37;18.90;;;;;;;5.51;62.43;152776.88;5067851;28;20539;-81
2022/03/03 08:20:13;;;;;;;26.10;20.77;;;;;;;5.67;62.52;152816.84;5065850;28;20776;-82
2022/03/03 08:22:49;;;;;;;26.17;19.80;;;;;;;5.78;62.59;152846.53;5053933;28;20896;-81
2022/03/03 08:25:25;;;;;;;26.27;20.20;;;;;;;5.83;62.55;152858.13;5068859;28;20465;-81
2022/03/03 08:28:02;;;;;;;24.23;20.30;;;;;;;5.87;62.07;152869.81;5068558;28;20454;-81
2022/03/03 08:30:38;;;;;;;24.70;19.73;;;;;;;6.03;61.26;152911.09;5087607;28;20935;-81
2022/03/03 08:33:18;;;;;;;24.83;19.57;;;;;;;6.21;60.59;152954.94;5053507;28;20461;-82
2022/03/03 08:35:57;;;;;;;22.40;19.70;;;;;;;6.32;60.77;152983.31;5051787;28;20449;-82
2022/03/03 08:38:35;;;;;;;23.70;20.07;;;;;;;6.46;60.54;153019.47;5068783;28;20939;-81
2022/03/03 08:41:10;;;;;;;23.00;20.50;;;;;;;6.56;59.38;153046.56;5055769;28;20971;-81
2022/03/03 08:43:49;;;;;;;23.97;20.10;;;;;;;6.35;59.64;152991.06;5088085;28;20476;-82
2022/03/03 08:46:26;;;;;;;28.53;21.47;;;;;;;6.27;59.97;152970.41;5068831;28;20449;-81
2022/03/03 08:49:05;;;;;;;26.33;21.17;;;;;;;6.27;59.20;152970.41;5058025;28;20483;-82
2022/03/03 08:51:41;;;;;;;27.73;20.80;;;;;;;6.39;59.08;153001.38;5045352;28;20945;-82
2022/03/03 08:54:18;;;;;;;26.10;21.17;;;;;;;6.39;59.67;153002.66;5066506;28;20791;-82
2022/03/03 08:56:53;;;;;;;27.70;20.30;;;;;;;6.24;59.50;152963.97;5063441;28;20536;-82
2022/03/03 08:59:29;;;;;;;25.70;20.30;;;;;;;6.46;58.71;153019.47;5065728;28;20469;-81
2022/03/03 09:02:05;;;;;;;26.67;21.20;;;;;;;6.11;59.11;152931.72;5050114;28;20450;-81
2022/03/03 09:04:41;;;;;;;26.03;20.90;;;;;;;5.93;59.95;152884.00;5064041;28;20473;-81
2022/03/03 09:07:16;;;;;;;26.40;20.63;;;;;;;5.73;61.99;152832.34;5044236;28;20463;-81
2022/03/03 09:09:53;;;;;;;28.70;21.83;;;;;;;5.31;61.01;152725.31;5063551;28;20437;-81
2022/03/03 09:12:29;;;;;;;27.00;21.00;;;;;;;5.19;62.59;152694.41;5066574;28;20438;-81
2022/03/03 09:15:06;;;;;;;26.77;21.47;;;;;;;5.19;61.96;152695.66;5059349;28;20887;-81
2022/03/03 09:17:42;;;;;;;28.67;22.67;;;;;;;5.17;61.40;152690.50;5047359;28;20445;-81
2022/03/03 09:20:17;;;;;;;26.23;21.60;;;;;;;4.87;62.26;152613.22;5064143;28;20971;-81
2022/03/03 09:22:53;;;;;;;29.47;21.20;;;;;;;4.97;62.58;152638.97;5065804;28;20435;-81
2022/03/03 09:25:30;;;;;;;32.27;22.40;;;;;;;5.30;62.07;152722.72;5062016;28;20473;-81
2022/03/03 09:28:07;;;;;;;28.27;21.63;;;;;;;5.18;61.41;152691.81;5047175;28;20824;-81
2022/03/03 09:30:43;;;;;;;33.43;22.83;;;;;;;5.23;61.96;152704.69;5065700;28;20473;-81
2022/03/03 09:33:19;;;;;;;27.07;21.80;;;;;;;5.39;61.61;152745.94;5062421;28;20462;-81
2022/03/03 09:35:54;;;;;;;26.43;21.67;;;;;;;5.28;61.68;152717.59;5061247;28;20438;-81
2022/03/03 09:38:30;;;;;;;27.83;20.23;;;;;;;5.31;61.16;152725.31;5064638;28;20943;-80
2022/03/03 09:41:07;;;;;;;28.80;21.00;;;;;;;5.16;60.58;152686.66;5062118;28;20435;-80
2022/03/03 09:43:45;;;;;;;29.37;22.20;;;;;;;5.08;60.84;152666.03;5059593;28;20451;-80
2022/03/03 09:46:22;;;;;;;26.33;21.10;;;;;;;5.21;61.50;152699.56;5046193;28;20458;-80
2022/03/03 09:48:57;;;;;;;27.90;21.20;;;;;;;5.21;61.12;152699.56;5067028;28;20559;-80
2022/03/03 09:51:33;;;;;;;26.17;21.03;;;;;;;5.06;61.48;152660.84;5066722;28;20446;-80
2022/03/03 09:54:09;;;;;;;30.43;22.10;;;;;;;4.93;60.87;152628.63;5063817;28;20454;-80
2022/03/03 09:56:46;;;;;;;28.70;22.13;;;;;;;5.03;61.76;152654.41;5074019;28;20530;-80
2022/03/03 09:59:21;;;;;;;32.10;23.13;;;;;;;5.07;60.94;152663.44;5064046;28;20461;-80
2022/03/03 10:02:02;;;;;;;30.63;24.23;;;;;;;5.20;61.99;152698.25;5063023;28;20438;-80
2022/03/03 10:04:38;;;;;;;30.07;22.03;;;;;;;5.25;62.20;152709.84;5061737;28;20557;-80
2022/03/03 10:07:13;;;;;;;30.40;23.30;;;;;;;5.21;61.12;152700.84;5048811;28;20481;-80
2022/03/03 10:10:07;;;;;;;27.73;21.07;;;;;;;5.27;60.94;152715.03;5066865;28;20451;-80
2022/03/03 10:12:45;;;;;;;27.20;22.37;;;;;;;5.34;60.96;152733.06;5044073;28;20538;-80
2022/03/03 10:15:25;;;;;;;30.77;23.17;;;;;;;5.61;60.29;152802.72;5063824;28;20678;-80
2022/03/03 10:18:03;;;;;;;33.00;23.73;;;;;;;5.88;58.85;152872.34;5063501;28;20461;-81
2022/03/03 10:20:47;;;;;;;32.30;22.50;;;;;;;5.80;58.21;152850.44;5051144;28;20446;-80
2022/03/03 10:23:25;;;;;;;29.73;21.20;;;;;;;6.03;57.71;152911.09;5045849;28;20447;-80
2022/03/03 10:26:02;;;;;;;28.80;21.17;;;;;;;6.10;58.07;152929.13;5060082;28;20466;-80
2022/03/03 10:28:39;;;;;;;29.73;21.80;;;;;;;6.14;57.67;152939.44;5058868;28;20450;-80
2022/03/03 10:31:16;;;;;;;32.13;21.50;;;;;;;6.39;56.92;153002.66;5061922;28;20445;-80
2022/03/03 10:33:51;;;;;;;27.83;20.57;;;;;;;6.44;56.44;153014.28;5047075;28;20457;-80
2022/03/03 10:36:30;;;;;;;27.10;20.93;;;;;;;6.53;56.09;153037.50;5066698;28;20454;-80
2022/03/03 10:39:06;;;;;;;29.87;22.27;;;;;;;6.31;56.76;152980.72;5068057;28;20453;-80
2022/03/03 10:41:43;;;;;;;29.80;22.10;;;;;;;6.07;57.75;152920.09;5064975;28;20451;-80
2022/03/03 10:44:24;;;;;;;27.13;21.73;;;;;;;6.20;56.77;152953.63;5067290;28;20812;-80
2022/03/03 10:47:05;;;;;;;27.97;22.07;;;;;;;6.33;56.00;152985.91;5077316;28;20472;-80
2022/03/03 10:49:42;;;;;;;27.33;19.97;;;;;;;6.23;55.10;152961.38;5069211;28;20478;-80
2022/03/03 10:52:19;;;;;;;22.70;19.63;;;;;;;6.24;54.89;152963.97;5063694;28;20439;-80
2022/03/03 10:54:57;;;;;;;23.53;19.73;;;;;;;6.42;55.09;153009.13;5067132;28;20457;-80
2022/03/03 10:57:38;;;;;;;28.33;20.70;;;;;;;6.48;54.93;153024.63;5067915;28;20445;-80
2022/03/03 11:00:18;;;;;;;24.33;18.50;;;;;;;6.49;53.57;153027.16;5045929;28;20438;-80
2022/03/03 11:02:55;;;;;;;27.67;20.40;;;;;;;6.79;53.64;153103.31;5064917;28;20441;-80
2022/03/03 11:05:32;;;;;;;25.27;19.63;;;;;;;6.74;53.44;153091.72;5052669;28;20465;-80
2022/03/03 11:08:08;;;;;;;25.13;19.20;;;;;;;6.73;53.47;153090.41;5068132;28;20454;-80
2022/03/03 11:10:44;;;;;;;24.70;19.13;;;;;;;6.67;53.42;153073.66;5069991;28;20449;-80
2022/03/03 11:13:19;;;;;;;27.17;20.07;;;;;;;6.68;52.93;153076.22;5070561;28;20442;-80
2022/03/03 11:15:57;;;;;;;24.30;18.70;;;;;;;6.72;50.98;153087.81;5070578;28;20537;-80
2022/03/03 11:18:32;;;;;;;28.20;19.13;;;;;;;6.72;51.51;153086.56;5066842;28;20475;-80
2022/03/03 11:21:08;;;;;;;31.10;19.03;;;;;;;6.67;52.16;153073.66;5049841;28;20983;-80
2022/03/03 11:23:46;;;;;;;23.53;18.70;;;;;;;6.74;51.39;153091.72;5051967;28;20469;-80
2022/03/03 11:26:23;;;;;;;25.53;18.43;;;;;;;6.73;51.27;153089.13;5066994;28;20795;-80
2022/03/03 11:29:02;;;;;;;24.60;18.90;;;;;;;7.03;50.29;153165.28;5069263;28;20490;-80
2022/03/03 11:31:40;;;;;;;22.63;19.30;;;;;;;6.86;49.77;153122.69;5050447;28;20438;-80
2022/03/03 11:34:31;;;;;;;24.87;17.53;;;;;;;6.79;50.96;153103.31;5054120;28;20457;-80
2022/03/03 11:37:08;;;;;;;23.10;17.37;;;;;;;6.88;50.90;153127.88;5076697;28;20442;-80
2022/03/03 11:39:46;;;;;;;23.60;18.40;;;;;;;7.15;50.83;153196.25;5048242;28;20520;-80
2022/03/03 11:42:31;;;;;;;24.67;18.23;;;;;;;7.21;49.46;153213.06;5047749;28;20540;-81
2022/03/03 11:45:21;;;;;;;22.07;17.47;;;;;;;7.16;49.54;153198.84;5067346;28;20549;-81
2022/03/03 11:48:11;;;;;;;23.77;17.97;;;;;;;7.33;49.02;153244.03;5074959;28;20451;-80
2022/03/03 11:50:47;;;;;;;21.60;16.37;;;;;;;7.54;48.83;153295.72;5066118;28;20469;-80
2022/03/03 11:53:24;;;;;;;23.60;18.47;;;;;;;7.55;48.69;153298.28;5052122;28;20457;-80
2022/03/03 11:56:01;;;;;;;28.90;18.60;;;;;;;7.25;49.75;153222.13;5055637;28;20441;-80
2022/03/03 11:58:39;;;;;;;26.60;18.27;;;;;;;7.09;50.07;153182.09;5042701;28;20478;-80